createdAt,value
2022-09-09T00:02:33.690Z,65.93
2022-09-09T00:05:05.159Z,65.92
2022-09-09T00:07:41.621Z,65.37
2022-09-09T00:10:26.704Z,65.97
2022-09-09T00:13:15.283Z,65.76
2022-09-09T00:15:48.867Z,65.57
2022-09-09T00:18:31.284Z,64.67
2022-09-09T00:21:10.058Z,65.02
2022-09-09T00:23:41.644Z,64.35
2022-09-09T00:26:31.147Z,65.58
2022-09-09T00:29:01.571Z,64.92
2022-09-09T00:31:34.606Z,64.82
2022-09-09T00:34:15.238Z,63.35
2022-09-09T00:36:48.939Z,63.40
2022-09-09T00:39:36.971Z,64.48
2022-09-09T00:42:24.981Z,63.75
2022-09-09T00:44:58.407Z,62.89
2022-09-09T00:47:45.474Z,63.83
2022-09-09T00:50:27.360Z,64.06
2022-09-09T00:53:03.206Z,62.69
2022-09-09T00:55:42.908Z,60.83
2022-09-09T00:58:12.924Z,62.14
2022-09-09T01:00:46.632Z,62.65
2022-09-09T01:03:21.940Z,62.25
2022-09-09T01:06:17.436Z,62.45
2022-09-09T01:08:55.603Z,61.69
2022-09-09T01:11:27.387Z,61.78
2022-09-09T01:14:19.457Z,62.52
2022-09-09T01:16:47.850Z,62.04
2022-09-09T01:19:21.850Z,61.13
2022-09-09T01:21:59.680Z,61.77
2022-09-09T01:24:45.540Z,62.27
2022-09-09T01:27:30.005Z,61.94
2022-09-09T01:30:01.540Z,62.17
2022-09-09T01:32:40.101Z,62.13
2022-09-09T01:35:22.713Z,61.98
2022-09-09T01:37:56.432Z,61.99
2022-09-09T01:40:29.543Z,62.46
2022-09-09T01:43:03.529Z,62.32
2022-09-09T01:45:38.306Z,63.45
2022-09-09T01:48:15.621Z,63.10
2022-09-09T01:50:47.132Z,62.60
2022-09-09T01:53:20.601Z,62.76
2022-09-09T01:56:26.177Z,62.92
2022-09-09T01:59:02.299Z,62.59
2022-09-09T02:01:41.232Z,61.82
2022-09-09T02:04:29.230Z,63.36
2022-09-09T02:07:05.155Z,62.70
2022-09-09T02:09:38.475Z,61.75
2022-09-09T02:12:08.470Z,63.18
2022-09-09T02:14:47.561Z,61.52
2022-09-09T02:17:20.659Z,61.75
2022-09-09T02:20:12.631Z,62.28
2022-09-09T02:22:59.648Z,61.83
2022-09-09T02:25:31.103Z,61.37
2022-09-09T02:28:16.050Z,61.94
2022-09-09T02:30:44.916Z,61.50
2022-09-09T02:33:15.858Z,60.80
2022-09-09T02:35:54.348Z,61.28
2022-09-09T02:38:30.435Z,62.98
2022-09-09T02:41:15.686Z,63.66
2022-09-09T02:43:45.942Z,63.07
2022-09-09T02:46:31.081Z,62.73
2022-09-09T02:49:03.151Z,61.42
2022-09-09T02:51:46.742Z,62.29
2022-09-09T02:54:24.314Z,62.13
2022-09-09T02:56:57.667Z,63.20
2022-09-09T02:59:41.191Z,62.80
2022-09-09T03:02:18.602Z,62.81
2022-09-09T03:05:03.881Z,62.10
2022-09-09T03:07:37.385Z,62.03
2022-09-09T03:10:11.367Z,62.14
2022-09-09T03:12:44.920Z,62.26
2022-09-09T03:15:20.541Z,62.91
2022-09-09T03:18:17.077Z,62.65
2022-09-09T03:20:52.248Z,64.27
2022-09-09T03:23:24.322Z,64.83
2022-09-09T03:25:57.948Z,64.52
2022-09-09T03:28:36.669Z,65.02
2022-09-09T03:31:11.733Z,64.58
2022-09-09T03:33:47.341Z,65.02
2022-09-09T03:36:22.277Z,64.52
2022-09-09T03:38:56.173Z,64.65
2022-09-09T03:41:28.760Z,64.22
2022-09-09T03:43:59.173Z,64.43
2022-09-09T03:46:35.041Z,63.98
2022-09-09T03:49:09.822Z,64.19
2022-09-09T03:51:41.651Z,64.06
2022-09-09T03:54:18.810Z,64.46
2022-09-09T03:56:51.425Z,64.84
2022-09-09T03:59:24.703Z,64.82
2022-09-09T04:02:00.274Z,64.31
2022-09-09T04:04:36.840Z,64.42
2022-09-09T04:07:09.867Z,64.31
2022-09-09T04:09:42.924Z,64.37
2022-09-09T04:12:17.855Z,64.72
2022-09-09T04:14:51.858Z,64.85
2022-09-09T04:17:25.388Z,64.50
2022-09-09T04:20:01.201Z,64.36
2022-09-09T04:22:34.362Z,64.28
2022-09-09T04:25:07.510Z,64.80
2022-09-09T04:27:39.680Z,64.53
2022-09-09T04:30:18.472Z,64.50
2022-09-09T04:32:51.604Z,64.87
2022-09-09T04:35:26.964Z,65.41
2022-09-09T04:38:01.431Z,65.55
2022-09-09T04:40:41.691Z,65.35
2022-09-09T04:43:14.177Z,66.10
2022-09-09T04:45:53.039Z,66.19
2022-09-09T04:48:26.688Z,66.32
2022-09-09T04:50:56.554Z,67.76
2022-09-09T04:53:26.957Z,67.10
2022-09-09T04:56:07.732Z,66.94
2022-09-09T04:58:44.206Z,67.81
2022-09-09T05:01:19.590Z,67.48
2022-09-09T05:03:50.883Z,68.83
2022-09-09T05:06:22.343Z,67.98
2022-09-09T05:09:00.161Z,67.91
2022-09-09T05:11:33.760Z,67.80
2022-09-09T05:14:12.710Z,67.75
2022-09-09T05:16:48.226Z,67.68
2022-09-09T05:19:20.372Z,66.94
2022-09-09T05:21:51.775Z,66.81
2022-09-09T05:24:27.248Z,67.66
2022-09-09T05:27:03.893Z,67.66
2022-09-09T05:29:40.023Z,67.88
2022-09-09T05:32:17.445Z,67.56
2022-09-09T05:34:54.153Z,69.19
2022-09-09T05:37:28.026Z,69.82
2022-09-09T05:40:00.271Z,71.38
2022-09-09T05:42:34.318Z,70.70
2022-09-09T05:45:10.195Z,70.21
2022-09-09T05:47:41.713Z,68.94
2022-09-09T05:50:20.199Z,69.40
2022-09-09T05:52:53.955Z,68.96
2022-09-09T05:55:26.431Z,68.00
2022-09-09T05:58:02.635Z,67.36
2022-09-09T06:00:33.234Z,67.48
2022-09-09T06:03:09.921Z,67.38
2022-09-09T06:05:40.305Z,68.30
2022-09-09T06:08:11.549Z,68.43
2022-09-09T06:10:45.100Z,67.88
2022-09-09T06:13:16.516Z,67.30
2022-09-09T06:15:53.366Z,67.04
2022-09-09T06:18:26.029Z,68.12
2022-09-09T06:20:58.534Z,67.82
2022-09-09T06:23:32.510Z,71.63
2022-09-09T06:26:12.535Z,73.12
2022-09-09T06:28:44.030Z,72.45
2022-09-09T06:31:29.888Z,72.28
2022-09-09T06:34:05.125Z,71.91
2022-09-09T06:36:39.379Z,71.25
2022-09-09T06:39:16.704Z,70.84
2022-09-09T06:41:54.335Z,71.49
2022-09-09T06:44:42.754Z,71.23
2022-09-09T06:47:15.148Z,70.43
2022-09-09T06:49:48.244Z,70.07
2022-09-09T06:52:22.630Z,70.70
2022-09-09T06:54:59.662Z,71.04
2022-09-09T06:57:37.248Z,69.93
2022-09-09T07:00:15.799Z,69.40
2022-09-09T07:02:49.351Z,70.33
2022-09-09T07:05:22.420Z,69.68
2022-09-09T07:07:55.707Z,69.86
2022-09-09T07:10:29.520Z,67.65
2022-09-09T07:13:02.667Z,67.44
2022-09-09T07:15:39.088Z,67.21
2022-09-09T07:18:11.566Z,67.20
2022-09-09T07:20:50.115Z,66.59
2022-09-09T07:23:23.507Z,66.85
2022-09-09T07:25:54.419Z,65.85
2022-09-09T07:28:31.015Z,65.98
2022-09-09T07:31:06.419Z,65.13
2022-09-09T07:33:37.023Z,64.15
2022-09-09T07:36:09.530Z,63.52
2022-09-09T07:38:46.737Z,63.83
2022-09-09T07:41:37.332Z,64.19
2022-09-09T07:44:33.331Z,63.06
2022-09-09T07:47:08.752Z,63.62
2022-09-09T07:49:42.090Z,63.56
2022-09-09T07:52:21.894Z,63.41
2022-09-09T07:54:58.255Z,63.39
2022-09-09T07:57:29.122Z,62.79
2022-09-09T08:00:02.355Z,62.41
2022-09-09T08:02:46.340Z,62.40
2022-09-09T08:05:21.901Z,63.34
2022-09-09T08:07:57.540Z,62.82
2022-09-09T08:10:33.072Z,63.10
2022-09-09T08:13:19.463Z,61.68
2022-09-09T08:15:53.444Z,62.10
2022-09-09T08:18:26.601Z,60.60
2022-09-09T08:21:00.461Z,59.39
2022-09-09T08:23:31.267Z,61.35
2022-09-09T08:26:04.780Z,61.33
2022-09-09T08:28:35.348Z,60.00
2022-09-09T08:34:00.261Z,60.71
2022-09-09T08:36:33.783Z,62.30
2022-09-09T08:39:12.344Z,61.43
2022-09-09T08:41:52.755Z,62.24
2022-09-09T08:44:35.016Z,61.21
2022-09-09T08:47:13.844Z,60.84
2022-09-09T08:49:49.222Z,60.69
2022-09-09T08:52:39.428Z,60.62
2022-09-09T08:55:18.386Z,60.61
2022-09-09T08:57:49.353Z,59.84
2022-09-09T09:00:22.970Z,59.71
2022-09-09T09:02:59.896Z,60.03
2022-09-09T09:05:47.709Z,59.66
2022-09-09T09:08:28.823Z,59.18
2022-09-09T09:10:59.529Z,59.39
2022-09-09T09:13:44.252Z,57.54
2022-09-09T09:16:33.563Z,57.83
2022-09-09T09:19:09.254Z,56.42
2022-09-09T09:21:46.748Z,57.05
2022-09-09T09:24:23.504Z,58.54
2022-09-09T09:26:55.169Z,58.33
2022-09-09T09:29:27.732Z,57.07
2022-09-09T09:32:03.662Z,57.32
2022-09-09T09:34:36.363Z,57.16
2022-09-09T09:37:15.164Z,56.43
2022-09-09T09:42:39.769Z,56.18
2022-09-09T09:45:20.339Z,57.27
2022-09-09T09:48:03.012Z,57.04
2022-09-09T09:50:40.024Z,57.60
2022-09-09T09:53:21.922Z,58.80
2022-09-09T09:55:58.260Z,58.63
2022-09-09T09:58:32.431Z,55.03
2022-09-09T10:01:03.635Z,55.05
2022-09-09T10:03:40.344Z,62.76
2022-09-09T10:06:08.149Z,73.02
2022-09-09T10:08:48.043Z,81.23
2022-09-09T10:11:41.221Z,86.98
2022-09-09T10:14:23.421Z,92.49
2022-09-09T10:16:53.488Z,94.33
2022-09-09T10:19:32.369Z,94.57
2022-09-09T10:22:09.648Z,94.28
2022-09-09T10:25:12.486Z,93.40
2022-09-09T10:27:45.510Z,93.37
2022-09-09T10:30:17.907Z,93.26
2022-09-09T10:33:03.909Z,93.25
2022-09-09T10:35:39.450Z,92.14
2022-09-09T10:38:15.753Z,91.29
2022-09-09T10:40:56.532Z,89.59
2022-09-09T10:43:39.881Z,91.26
2022-09-09T10:46:14.306Z,90.19
2022-09-09T10:48:48.843Z,89.45
2022-09-09T10:51:28.331Z,88.37
2022-09-09T10:54:07.327Z,88.63
2022-09-09T10:56:37.269Z,91.11
2022-09-09T10:59:13.700Z,88.06
2022-09-09T11:02:09.974Z,90.77
2022-09-09T11:04:44.166Z,89.97
2022-09-09T11:07:17.461Z,92.33
2022-09-09T11:09:52.832Z,93.32
2022-09-09T11:12:25.905Z,92.69
2022-09-09T11:15:09.920Z,92.29
2022-09-09T11:17:42.927Z,89.23
2022-09-09T11:20:15.569Z,86.56
2022-09-09T11:23:14.954Z,84.91
2022-09-09T11:25:53.182Z,80.10
2022-09-09T11:28:33.081Z,83.79
2022-09-09T11:31:06.439Z,80.13
2022-09-09T11:33:52.501Z,81.23
2022-09-09T11:36:37.348Z,82.85
2022-09-09T11:39:23.807Z,76.98
2022-09-09T11:41:58.659Z,74.30
2022-09-09T11:44:32.684Z,73.92
2022-09-09T11:47:05.700Z,74.61
2022-09-09T11:49:44.599Z,76.96
2022-09-09T11:52:27.824Z,75.37
2022-09-09T11:55:00.928Z,71.53
2022-09-09T11:57:40.140Z,69.74
2022-09-09T12:00:11.102Z,59.33
2022-09-09T12:02:51.623Z,53.78
2022-09-09T12:05:22.250Z,54.94
2022-09-09T12:07:56.737Z,52.39
2022-09-09T12:10:31.243Z,49.08
2022-09-09T12:13:19.206Z,49.89
2022-09-09T12:15:59.285Z,47.01
2022-09-09T12:18:40.704Z,44.52
2022-09-09T12:21:23.116Z,44.15
2022-09-09T12:24:00.256Z,41.21
2022-09-09T12:26:41.442Z,39.97
2022-09-09T12:29:23.003Z,43.30
2022-09-09T12:31:53.985Z,38.65
2022-09-09T12:34:41.173Z,36.66
2022-09-09T12:37:27.559Z,35.81
2022-09-09T12:40:06.281Z,38.33
2022-09-09T12:42:37.980Z,33.18
2022-09-09T12:45:27.133Z,39.31
2022-09-09T12:48:10.184Z,35.83
2022-09-09T12:50:47.324Z,36.36
2022-09-09T12:53:25.609Z,35.75
2022-09-09T12:56:04.053Z,35.94
2022-09-09T12:58:35.880Z,32.76
2022-09-09T13:01:06.212Z,32.89
2022-09-09T13:03:44.030Z,31.21
2022-09-09T13:06:12.899Z,30.54
2022-09-09T13:08:43.538Z,31.66
2022-09-09T13:11:15.482Z,29.47
2022-09-09T13:13:51.976Z,29.37
2022-09-09T13:16:24.558Z,29.55
2022-09-09T13:18:57.512Z,31.05
2022-09-09T13:21:43.596Z,30.65
2022-09-09T13:24:43.140Z,29.65
2022-09-09T13:27:29.216Z,31.94
2022-09-09T13:29:59.106Z,30.97
2022-09-09T13:32:32.669Z,29.57
2022-09-09T13:35:08.469Z,31.61
2022-09-09T13:37:42.391Z,30.68
2022-09-09T13:40:31.427Z,34.88
2022-09-09T13:43:03.376Z,35.30
2022-09-09T13:45:33.364Z,38.10
2022-09-09T13:48:09.744Z,42.42
2022-09-09T13:50:42.721Z,41.93
2022-09-09T13:53:16.456Z,47.29
2022-09-09T13:55:50.435Z,47.40
2022-09-09T13:58:27.390Z,47.66
2022-09-09T14:00:58.685Z,48.60
2022-09-09T14:03:34.153Z,47.75
2022-09-09T14:06:28.523Z,51.02
2022-09-09T14:09:02.091Z,53.94
2022-09-09T14:11:32.673Z,50.20
2022-09-09T14:14:06.558Z,52.83
2022-09-09T14:16:37.464Z,51.65
2022-09-09T14:19:11.518Z,52.70
2022-09-09T14:21:44.028Z,51.14
2022-09-09T14:24:17.744Z,52.33
2022-09-09T14:26:53.158Z,55.52
2022-09-09T14:29:24.097Z,55.20
2022-09-09T14:31:56.054Z,55.32
2022-09-09T14:34:28.899Z,55.94
2022-09-09T14:36:56.987Z,55.47
2022-09-09T14:39:30.024Z,55.28
2022-09-09T14:42:00.739Z,55.65
2022-09-09T14:44:34.178Z,55.95
2022-09-09T14:47:04.785Z,54.70
2022-09-09T14:49:53.036Z,55.71
2022-09-09T14:52:24.245Z,54.80
2022-09-09T14:54:54.393Z,56.68
2022-09-09T14:57:27.410Z,54.92
2022-09-09T15:00:00.995Z,53.69
2022-09-09T15:02:37.080Z,54.75
2022-09-09T15:05:16.168Z,54.40
2022-09-09T15:07:49.013Z,54.43
2022-09-09T15:10:23.675Z,53.62
2022-09-09T15:12:54.324Z,53.97
2022-09-09T15:15:24.746Z,53.58
2022-09-09T15:18:00.405Z,52.74
2022-09-09T15:20:40.022Z,52.79
2022-09-09T15:23:13.342Z,53.04
2022-09-09T15:25:56.865Z,55.11
2022-09-09T15:28:30.385Z,54.01
2022-09-09T15:31:07.607Z,54.51
2022-09-09T15:33:38.717Z,53.02
2022-09-09T15:36:18.087Z,53.73
2022-09-09T15:38:51.105Z,53.54
2022-09-09T15:41:22.113Z,54.49
2022-09-09T15:44:00.224Z,52.72
2022-09-09T15:46:38.594Z,53.26
2022-09-09T15:49:13.086Z,53.09
2022-09-09T15:51:47.365Z,54.97
2022-09-09T15:54:24.492Z,53.70
2022-09-09T15:57:01.827Z,55.58
2022-09-09T15:59:36.951Z,54.13
2022-09-09T16:02:08.009Z,54.59
2022-09-09T16:04:39.075Z,55.93
2022-09-09T16:07:14.771Z,56.30
2022-09-09T16:09:47.271Z,56.75
2022-09-09T16:12:20.258Z,55.16
2022-09-09T16:14:52.699Z,57.60
2022-09-09T16:17:28.929Z,56.22
2022-09-09T16:20:02.130Z,56.30
2022-09-09T16:22:32.415Z,55.44
2022-09-09T16:25:11.274Z,56.05
2022-09-09T16:27:39.266Z,56.13
2022-09-09T16:30:10.257Z,56.98
2022-09-09T16:32:46.064Z,56.14
2022-09-09T16:35:20.690Z,56.18
2022-09-09T16:37:51.242Z,55.19
2022-09-09T16:40:22.116Z,56.03
2022-09-09T16:42:55.079Z,56.35
2022-09-09T16:45:27.507Z,56.98
2022-09-09T16:48:00.571Z,57.68
2022-09-09T16:50:56.711Z,56.96
2022-09-09T16:53:29.307Z,57.21
2022-09-09T16:56:00.063Z,56.27
2022-09-09T16:58:34.036Z,56.68
2022-09-09T17:01:04.568Z,58.33
2022-09-09T17:03:34.577Z,58.74
2022-09-09T17:06:15.160Z,59.04
2022-09-09T17:08:50.040Z,58.21
2022-09-09T17:11:25.604Z,57.67
2022-09-09T17:13:56.573Z,57.82
2022-09-09T17:16:28.589Z,58.52
2022-09-09T17:19:02.201Z,57.82
2022-09-09T17:21:35.687Z,57.77
2022-09-09T17:24:06.832Z,58.02
2022-09-09T17:26:39.965Z,59.91
2022-09-09T17:29:12.435Z,58.39
2022-09-09T17:31:45.273Z,59.29
2022-09-09T17:34:18.309Z,58.35
2022-09-09T17:36:54.042Z,59.37
2022-09-09T17:39:24.276Z,58.90
2022-09-09T17:41:55.906Z,59.28
2022-09-09T17:44:33.547Z,59.97
2022-09-09T17:47:07.352Z,59.99
2022-09-09T17:49:40.341Z,59.35
2022-09-09T17:52:10.699Z,60.14
2022-09-09T17:54:42.918Z,61.14
2022-09-09T17:57:20.206Z,60.41
2022-09-09T17:59:53.237Z,60.88
2022-09-09T18:02:26.054Z,60.69
2022-09-09T18:04:57.915Z,60.98
2022-09-09T18:07:31.284Z,61.70
2022-09-09T18:10:05.997Z,62.17
2022-09-09T18:12:37.362Z,61.22
2022-09-09T18:15:24.172Z,61.69
2022-09-09T18:18:19.751Z,62.27
2022-09-09T18:20:50.305Z,61.75
2022-09-09T18:23:21.194Z,62.28
2022-09-09T18:25:58.985Z,62.66
2022-09-09T18:28:30.404Z,62.95
2022-09-09T18:31:00.839Z,62.55
2022-09-09T18:33:33.589Z,63.39
2022-09-09T18:36:09.888Z,64.02
2022-09-09T18:38:40.992Z,64.67
2022-09-09T18:41:26.131Z,65.02
2022-09-09T18:44:01.042Z,64.24
2022-09-09T18:46:38.767Z,63.94
2022-09-09T18:49:11.927Z,64.06
2022-09-09T18:51:47.303Z,62.62
2022-09-09T18:54:23.338Z,64.49
2022-09-09T18:56:54.070Z,64.60
2022-09-09T18:59:24.308Z,64.47
2022-09-09T19:01:57.841Z,64.54
2022-09-09T19:04:30.448Z,63.96
2022-09-09T19:07:00.810Z,63.90
2022-09-09T19:09:31.247Z,64.44
2022-09-09T19:12:02.451Z,64.15
2022-09-09T19:14:35.832Z,64.00
2022-09-09T19:17:08.800Z,62.88
2022-09-09T19:19:43.884Z,63.36
2022-09-09T19:22:15.273Z,63.82
2022-09-09T19:24:46.260Z,65.32
2022-09-09T19:27:21.775Z,64.77
2022-09-09T19:29:56.373Z,64.61
2022-09-09T19:35:31.040Z,65.33
2022-09-09T19:38:05.130Z,65.06
2022-09-09T19:40:38.260Z,65.41
2022-09-09T19:43:09.924Z,65.40
2022-09-09T19:45:45.075Z,65.61
2022-09-09T19:48:20.545Z,64.65
2022-09-09T19:50:51.235Z,64.75
2022-09-09T19:53:24.433Z,65.13
2022-09-09T19:55:58.022Z,65.04
2022-09-09T19:58:34.475Z,65.03
2022-09-09T20:01:06.119Z,63.68
2022-09-09T20:03:39.098Z,64.82
2022-09-09T20:06:33.629Z,64.78
2022-09-09T20:09:04.556Z,63.63
2022-09-09T20:11:39.412Z,63.71
2022-09-09T20:14:15.963Z,65.36
2022-09-09T20:16:49.406Z,63.44
2022-09-09T20:19:22.410Z,64.97
2022-09-09T20:21:52.265Z,64.58
2022-09-09T20:24:26.380Z,64.71
2022-09-09T20:27:04.499Z,65.93
2022-09-09T20:29:35.333Z,65.60
2022-09-09T20:32:07.963Z,65.37
2022-09-09T20:34:47.803Z,64.63
2022-09-09T20:37:21.740Z,66.65
2022-09-09T20:39:53.275Z,66.42
2022-09-09T20:42:26.191Z,65.74
2022-09-09T20:45:00.281Z,65.60
2022-09-09T20:47:33.125Z,64.63
2022-09-09T20:50:06.066Z,64.16
2022-09-09T20:52:37.803Z,64.47
2022-09-09T20:55:11.067Z,63.87
2022-09-09T20:57:43.577Z,64.17
2022-09-09T21:00:15.001Z,64.14
2022-09-09T21:02:47.684Z,65.90
2022-09-09T21:05:23.809Z,65.42
2022-09-09T21:07:57.758Z,66.31
2022-09-09T21:10:27.583Z,65.25
2022-09-09T21:13:01.599Z,65.93
2022-09-09T21:15:36.860Z,66.62
2022-09-09T21:18:11.568Z,66.20
2022-09-09T21:20:39.354Z,69.97
2022-09-09T21:23:13.308Z,71.89
2022-09-09T21:25:51.861Z,78.43
2022-09-09T21:28:28.468Z,84.57
2022-09-09T21:31:02.085Z,91.24
2022-09-09T21:33:36.329Z,94.87
2022-09-09T21:36:06.864Z,94.95
2022-09-09T21:38:45.771Z,94.96
2022-09-09T21:41:17.802Z,92.79
2022-09-09T21:43:57.860Z,92.93
2022-09-09T21:46:28.373Z,93.65
2022-09-09T21:49:03.649Z,90.66
2022-09-09T21:51:34.506Z,90.27
2022-09-09T21:54:05.132Z,90.65
2022-09-09T21:56:37.984Z,89.14
2022-09-09T21:59:10.674Z,92.21
2022-09-09T22:01:42.129Z,94.06
2022-09-09T22:04:12.195Z,92.88
2022-09-09T22:06:39.599Z,92.44
2022-09-09T22:09:12.997Z,91.26
2022-09-09T22:11:43.643Z,90.06
2022-09-09T22:14:16.425Z,88.05
2022-09-09T22:16:51.562Z,89.05
2022-09-09T22:19:22.114Z,91.22
2022-09-09T22:21:53.548Z,89.59
2022-09-09T22:24:26.523Z,90.17
2022-09-09T22:27:17.353Z,91.04
2022-09-09T22:29:45.168Z,92.33
2022-09-09T22:32:16.528Z,92.52
2022-09-09T22:34:44.292Z,91.68
2022-09-09T22:37:14.957Z,91.16
2022-09-09T22:39:43.163Z,90.82
2022-09-09T22:42:15.897Z,90.61
2022-09-09T22:44:48.278Z,91.62
2022-09-09T22:47:22.351Z,91.03
2022-09-09T22:49:57.063Z,88.75
2022-09-09T22:52:40.480Z,88.64
2022-09-09T22:55:09.533Z,87.33
2022-09-09T22:57:47.697Z,86.64
2022-09-09T23:00:21.059Z,85.99
2022-09-09T23:02:54.550Z,86.53
2022-09-09T23:05:25.490Z,85.85
2022-09-09T23:07:58.656Z,86.51
2022-09-09T23:10:34.903Z,85.36
2022-09-09T23:13:09.331Z,85.19
2022-09-09T23:16:07.037Z,84.43
2022-09-09T23:18:44.560Z,82.63
2022-09-09T23:21:16.567Z,83.53
2022-09-09T23:23:49.937Z,83.99
2022-09-09T23:26:21.022Z,83.72
2022-09-09T23:28:58.399Z,82.38
2022-09-09T23:31:33.146Z,82.56
2022-09-09T23:34:06.666Z,83.43
2022-09-09T23:36:40.580Z,84.61
2022-09-09T23:39:18.777Z,84.39
2022-09-09T23:41:52.037Z,83.31
2022-09-09T23:44:23.860Z,82.12
2022-09-09T23:46:56.958Z,81.98
2022-09-09T23:49:32.412Z,81.46
2022-09-09T23:52:05.465Z,84.26
2022-09-09T23:54:41.383Z,84.48
2022-09-09T23:57:13.677Z,82.63
2022-09-09T23:59:45.689Z,82.43
